Pearson, Arkansas
Current Conditions -  °F | °C
As of 5:18 AM on Tuesday 21 Oct 2014 (Local Time) from KSRC Reporting Station
Haze Haze  
Wind Chill: 10°   Ceiling: Unl
Heat Index: 10°   Visibility: 0.75mi
Dew Point:   Wind: 0mph
Humidity: 94%   Direction: NA
Pressure: 30.07"   Gusts: NA
Location:  35.4081°N, 92.1263°W
Report Text: KSRC 211018Z AUTO 00000KT 3/4SM BR CLR 10/09 A3007 RMK AO2 VIS 1/2V2 1/2 TSNO
Loading
Personal Weather Stations






























Interactive Weather Map
Tropical Storm Tracking
New forecast layout! Learn more

10-Day Weather Forecast

Advertisements
Track Severe Weather on mobile